Time;durP1;ratioP1;P1;durP2;ratioP2;P2;SDS_P1;SDS_P2;PMS_P1;PMS_P2;Temp;Humidity;BMP_temperature;BMP_pressure;BME280_temperature;BME280_humidity;BME280_pressure;Samples;Min_cycle;Max_cycle;Signal;HPM_P1;HPM_P2
2022/04/13 00:01:43;;;;;;;;;;;22.50;44.00;;;;;;6287107;27;19920;-47
2022/04/13 00:04:44;;;;;;;;;;;22.40;43.90;;;;;;6287189;27;19969;-46
2022/04/13 00:07:46;;;;;;;;;;;22.50;44.00;;;;;;6276952;27;19958;-51
2022/04/13 00:10:48;;;;;;;;;;;22.50;43.90;;;;;;6295706;27;19927;-49
2022/04/13 00:13:49;;;;;;;;;;;22.50;44.00;;;;;;6286965;28;20038;-47
2022/04/13 00:16:51;;;;;;;;;;;22.50;44.00;;;;;;6303955;27;20042;-47
2022/04/13 00:19:52;;;;;;;;;;;22.50;44.10;;;;;;6304844;27;20084;-47
2022/04/13 00:22:54;;;;;;;;;;;22.50;44.00;;;;;;6300697;28;19966;-47
2022/04/13 00:25:57;;;;;;;;;;;22.50;44.00;;;;;;6286829;27;19920;-45
2022/04/13 00:29:01;;;;;;;;;;;22.40;44.00;;;;;;6291909;27;19931;-47
2022/04/13 00:32:03;;;;;;;;;;;22.30;44.00;;;;;;6261606;28;19931;-51
2022/04/13 00:35:05;;;;;;;;;;;22.40;44.10;;;;;;6272491;28;20109;-47
2022/04/13 00:38:07;;;;;;;;;;;22.20;43.90;;;;;;6278062;28;19931;-47
2022/04/13 00:41:09;;;;;;;;;;;22.40;44.00;;;;;;6285493;27;19931;-46
2022/04/13 00:44:11;;;;;;;;;;;22.40;44.10;;;;;;6287612;27;20011;-48
2022/04/13 00:47:13;;;;;;;;;;;22.20;44.00;;;;;;6285418;28;20806;-46
2022/04/13 00:50:14;;;;;;;;;;;22.40;44.10;;;;;;6261348;28;20157;-45
2022/04/13 00:53:16;;;;;;;;;;;22.30;44.00;;;;;;6258922;28;20364;-46
2022/04/13 00:56:23;;;;;;;;;;;22.40;44.00;;;;;;6282846;27;19930;-45
2022/04/13 00:59:25;;;;;;;;;;;22.30;44.00;;;;;;6292655;27;19959;-51
2022/04/13 01:02:27;;;;;;;;;;;22.40;44.10;;;;;;6285041;27;19977;-44
2022/04/13 01:05:30;;;;;;;;;;;22.40;44.00;;;;;;6275806;27;19930;-45
2022/04/13 01:08:31;;;;;;;;;;;22.40;44.00;;;;;;6276700;28;19928;-48
2022/04/13 01:11:33;;;;;;;;;;;22.40;44.00;;;;;;6278202;28;19928;-47
2022/04/13 01:14:36;;;;;;;;;;;22.30;44.00;;;;;;6283420;27;19932;-48
2022/04/13 01:17:40;;;;;;;;;;;22.40;44.00;;;;;;6288163;27;19955;-45
2022/04/13 01:20:48;;;;;;;;;;;22.40;44.10;;;;;;6279412;27;19923;-47
2022/04/13 01:23:50;;;;;;;;;;;22.40;44.00;;;;;;6273500;28;20383;-46
2022/04/13 01:26:51;;;;;;;;;;;22.40;44.00;;;;;;6283330;28;20825;-47
2022/04/13 01:29:54;;;;;;;;;;;22.40;44.00;;;;;;6281909;28;20359;-46
2022/04/13 01:32:56;;;;;;;;;;;22.30;44.00;;;;;;6287429;27;19932;-49
2022/04/13 01:36:00;;;;;;;;;;;22.30;44.10;;;;;;6282123;27;20074;-45
2022/04/13 01:39:03;;;;;;;;;;;22.20;44.10;;;;;;6261601;27;20369;-45
2022/04/13 01:42:05;;;;;;;;;;;22.30;44.20;;;;;;6249019;28;19970;-48
2022/04/13 01:45:07;;;;;;;;;;;22.30;44.20;;;;;;6266371;28;19934;-48
2022/04/13 01:48:08;;;;;;;;;;;22.20;44.20;;;;;;6264056;28;20687;-46
2022/04/13 01:51:10;;;;;;;;;;;22.30;44.20;;;;;;6265686;28;19948;-45
2022/04/13 01:54:12;;;;;;;;;;;22.30;44.20;;;;;;6273049;27;19975;-47
2022/04/13 01:57:14;;;;;;;;;;;22.00;44.00;;;;;;6263490;28;20239;-46
2022/04/13 02:00:15;;;;;;;;;;;22.20;44.20;;;;;;6284208;27;19928;-47
2022/04/13 02:03:18;;;;;;;;;;;22.20;44.20;;;;;;6267340;28;20303;-46
2022/04/13 02:06:20;;;;;;;;;;;22.20;44.20;;;;;;6267624;28;20051;-45
2022/04/13 02:09:22;;;;;;;;;;;22.20;44.20;;;;;;6270851;27;19928;-47
2022/04/13 02:12:24;;;;;;;;;;;22.20;44.20;;;;;;6283301;27;20001;-45
2022/04/13 02:15:26;;;;;;;;;;;22.10;44.20;;;;;;6271912;27;20230;-46
2022/04/13 02:18:27;;;;;;;;;;;22.20;44.20;;;;;;6268204;28;20241;-46
2022/04/13 02:21:28;;;;;;;;;;;22.10;44.20;;;;;;6273119;28;20360;-46
2022/04/13 02:24:30;;;;;;;;;;;22.20;44.30;;;;;;6282875;28;19967;-45
2022/04/13 02:27:31;;;;;;;;;;;22.00;44.10;;;;;;6286577;27;20504;-47
2022/04/13 02:30:33;;;;;;;;;;;22.10;44.20;;;;;;6285384;28;19923;-45
2022/04/13 02:33:34;;;;;;;;;;;22.00;44.10;;;;;;6296603;27;19928;-46
2022/04/13 02:36:35;;;;;;;;;;;21.90;44.00;;;;;;6289378;27;20157;-46
2022/04/13 02:39:37;;;;;;;;;;;22.00;44.10;;;;;;6284237;27;20602;-46
2022/04/13 02:42:39;;;;;;;;;;;22.10;44.20;;;;;;6281282;27;20370;-46
2022/04/13 02:45:40;;;;;;;;;;;22.10;44.20;;;;;;6287673;27;20283;-46
2022/04/13 02:48:42;;;;;;;;;;;22.10;44.20;;;;;;6283620;27;20162;-45
2022/04/13 02:51:43;;;;;;;;;;;22.00;44.60;;;;;;6276657;28;20355;-47
2022/04/13 02:54:45;;;;;;;;;;;22.00;44.20;;;;;;6286189;28;19974;-46
2022/04/13 02:57:47;;;;;;;;;;;22.00;44.20;;;;;;6285043;27;20438;-46
2022/04/13 03:00:48;;;;;;;;;;;22.00;44.10;;;;;;6287084;27;20231;-47
2022/04/13 03:03:49;;;;;;;;;;;22.10;44.20;;;;;;6291637;27;19923;-46
2022/04/13 03:06:51;;;;;;;;;;;22.10;44.20;;;;;;6266393;27;20605;-47
2022/04/13 03:09:52;;;;;;;;;;;21.90;44.20;;;;;;6259189;28;20722;-46
2022/04/13 03:12:54;;;;;;;;;;;22.00;44.20;;;;;;6292500;27;20222;-46
2022/04/13 03:15:56;;;;;;;;;;;22.00;44.20;;;;;;6282017;27;19927;-46
2022/04/13 03:18:57;;;;;;;;;;;22.00;44.20;;;;;;6284369;27;20193;-46
2022/04/13 03:21:59;;;;;;;;;;;21.90;44.10;;;;;;6268809;28;19923;-47
2022/04/13 03:25:01;;;;;;;;;;;22.00;44.20;;;;;;6269927;28;19924;-46
2022/04/13 03:28:02;;;;;;;;;;;21.80;44.10;;;;;;6288612;27;20280;-46
2022/04/13 03:31:04;;;;;;;;;;;22.00;44.20;;;;;;6300524;27;19920;-47
2022/04/13 03:34:05;;;;;;;;;;;21.90;44.00;;;;;;6284435;28;20088;-46
2022/04/13 03:37:06;;;;;;;;;;;22.00;44.10;;;;;;6292251;27;19973;-49
2022/04/13 03:40:11;;;;;;;;;;;22.00;44.10;;;;;;6279141;28;19923;-47
2022/04/13 03:43:13;;;;;;;;;;;22.00;44.10;;;;;;6298828;27;19919;-47
2022/04/13 03:46:14;;;;;;;;;;;21.70;44.00;;;;;;6279078;28;20204;-48
2022/04/13 03:49:15;;;;;;;;;;;21.80;44.00;;;;;;6278430;28;20200;-47
2022/04/13 03:52:17;;;;;;;;;;;21.90;44.10;;;;;;6286068;27;20267;-47
2022/04/13 03:55:22;;;;;;;;;;;22.00;44.20;;;;;;6287649;27;20505;-48
2022/04/13 03:58:23;;;;;;;;;;;22.00;44.20;;;;;;6288625;28;19944;-48
2022/04/13 04:01:25;;;;;;;;;;;21.90;44.10;;;;;;6281706;28;19926;-47
2022/04/13 04:04:27;;;;;;;;;;;21.70;44.00;;;;;;6277038;28;20269;-48
2022/04/13 04:07:28;;;;;;;;;;;21.90;44.10;;;;;;6276399;28;19930;-47
2022/04/13 04:10:30;;;;;;;;;;;21.90;44.10;;;;;;6282380;28;20025;-47
2022/04/13 04:13:36;;;;;;;;;;;21.90;44.10;;;;;;6287914;27;20049;-46
2022/04/13 04:16:38;;;;;;;;;;;21.90;44.10;;;;;;6296529;27;19920;-50
2022/04/13 04:19:39;;;;;;;;;;;21.80;44.10;;;;;;6297052;27;19927;-46
2022/04/13 04:22:41;;;;;;;;;;;21.80;44.00;;;;;;6273991;28;20000;-49
2022/04/13 04:25:43;;;;;;;;;;;21.90;44.10;;;;;;6283464;28;19921;-47
2022/04/13 04:28:44;;;;;;;;;;;21.80;44.00;;;;;;6272840;28;20037;-47
2022/04/13 04:31:54;;;;;;;;;;;21.80;44.00;;;;;;6286624;27;19923;-45
2022/04/13 04:34:55;;;;;;;;;;;21.80;44.10;;;;;;6276221;28;20804;-50
2022/04/13 04:37:57;;;;;;;;;;;21.70;44.00;;;;;;6269468;28;20038;-47
2022/04/13 04:41:03;;;;;;;;;;;21.90;44.10;;;;;;6279086;28;20001;-45
2022/04/13 04:44:05;;;;;;;;;;;21.80;44.00;;;;;;6297800;27;19926;-46
2022/04/13 04:47:07;;;;;;;;;;;21.80;44.00;;;;;;6275092;28;20047;-45
2022/04/13 04:50:09;;;;;;;;;;;21.80;44.00;;;;;;6274616;28;19920;-46
2022/04/13 04:53:11;;;;;;;;;;;21.80;44.00;;;;;;6280320;27;19957;-47
2022/04/13 04:56:13;;;;;;;;;;;21.80;44.00;;;;;;6281819;28;19935;-46
2022/04/13 04:59:15;;;;;;;;;;;21.70;43.90;;;;;;6282431;28;19999;-47
2022/04/13 05:02:16;;;;;;;;;;;21.80;44.00;;;;;;6291828;27;20712;-47
2022/04/13 05:05:18;;;;;;;;;;;21.70;43.90;;;;;;6288310;28;19928;-45
2022/04/13 05:08:20;;;;;;;;;;;21.70;43.90;;;;;;6283706;28;21363;-46
2022/04/13 05:11:22;;;;;;;;;;;21.60;43.90;;;;;;6287402;27;19924;-50
2022/04/13 05:14:25;;;;;;;;;;;21.70;43.90;;;;;;6259700;27;19951;-46
2022/04/13 05:17:26;;;;;;;;;;;21.70;44.00;;;;;;6281864;28;19979;-45
2022/04/13 05:20:27;;;;;;;;;;;21.70;43.90;;;;;;6288667;27;19924;-49
2022/04/13 05:23:29;;;;;;;;;;;21.70;43.90;;;;;;6278100;27;19925;-49
2022/04/13 05:26:31;;;;;;;;;;;21.70;43.90;;;;;;6278084;28;19923;-46
2022/04/13 05:29:32;;;;;;;;;;;21.60;43.90;;;;;;6284264;27;19967;-46
2022/04/13 05:32:45;;;;;;;;;;;21.70;44.00;;;;;;6263385;28;20050;-47
2022/04/13 05:35:46;;;;;;;;;;;21.60;43.90;;;;;;6246263;28;19932;-45
2022/04/13 05:38:47;;;;;;;;;;;21.70;44.00;;;;;;6279885;28;20037;-47
2022/04/13 05:41:49;;;;;;;;;;;21.70;43.90;;;;;;6262370;28;21076;-47
2022/04/13 05:44:52;;;;;;;;;;;21.70;43.80;;;;;;6257456;28;20947;-47
2022/04/13 05:47:53;;;;;;;;;;;21.70;43.70;;;;;;6252302;28;19931;-45
2022/04/13 05:50:54;;;;;;;;;;;21.80;43.70;;;;;;6272926;27;20194;-46
2022/04/13 05:53:56;;;;;;;;;;;21.50;43.50;;;;;;6261548;27;20228;-50
2022/04/13 05:56:58;;;;;;;;;;;21.80;43.60;;;;;;6231374;28;20976;-48
2022/04/13 05:59:59;;;;;;;;;;;22.00;43.70;;;;;;6248893;28;19928;-47
2022/04/13 06:03:01;;;;;;;;;;;21.90;43.60;;;;;;6250113;28;20313;-45
2022/04/13 06:06:03;;;;;;;;;;;21.90;43.50;;;;;;6251827;27;20794;-45
2022/04/13 06:09:05;;;;;;;;;;;21.90;43.40;;;;;;6251252;27;20149;-47
2022/04/13 06:12:08;;;;;;;;;;;21.90;43.30;;;;;;6267644;27;21679;-46
2022/04/13 06:15:11;;;;;;;;;;;22.00;43.30;;;;;;6259451;28;19924;-46
2022/04/13 06:18:12;;;;;;;;;;;21.90;43.20;;;;;;6239004;28;20822;-50
2022/04/13 06:21:13;;;;;;;;;;;22.00;43.20;;;;;;6255384;27;19963;-45
2022/04/13 06:24:16;;;;;;;;;;;22.00;43.20;;;;;;6254917;28;19981;-47
2022/04/13 06:27:18;;;;;;;;;;;22.10;43.20;;;;;;6244809;28;20905;-48
2022/04/13 06:30:20;;;;;;;;;;;22.00;43.10;;;;;;6240669;27;20009;-48
2022/04/13 06:33:21;;;;;;;;;;;22.10;43.10;;;;;;6246705;27;19927;-47
2022/04/13 06:36:23;;;;;;;;;;;22.10;43.00;;;;;;6239992;28;20047;-46
2022/04/13 06:39:24;;;;;;;;;;;22.20;43.00;;;;;;6252843;27;19928;-44
2022/04/13 06:42:26;;;;;;;;;;;22.10;43.00;;;;;;6241617;28;19929;-44
2022/04/13 06:45:28;;;;;;;;;;;22.20;42.90;;;;;;6204944;28;20194;-45
2022/04/13 06:48:29;;;;;;;;;;;22.30;42.90;;;;;;6211521;27;19938;-46
2022/04/13 06:51:31;;;;;;;;;;;22.20;42.80;;;;;;6206327;27;20962;-46
2022/04/13 06:54:32;;;;;;;;;;;22.00;42.70;;;;;;6186729;27;20164;-47
2022/04/13 06:57:37;;;;;;;;;;;22.30;42.80;;;;;;6148789;27;20309;-46
2022/04/13 07:00:39;;;;;;;;;;;22.30;42.80;;;;;;6150452;27;19934;-46
2022/04/13 07:03:40;;;;;;;;;;;22.30;42.70;;;;;;6174203;27;19935;-51
2022/04/13 07:06:42;;;;;;;;;;;22.30;42.70;;;;;;6149480;27;19927;-48
2022/04/13 07:09:45;;;;;;;;;;;22.40;42.70;;;;;;6119794;27;19935;-45
2022/04/13 07:12:47;;;;;;;;;;;22.40;42.70;;;;;;6153278;28;20255;-44
2022/04/13 07:15:49;;;;;;;;;;;22.40;42.70;;;;;;6144015;27;19949;-45
2022/04/13 07:18:51;;;;;;;;;;;22.20;42.60;;;;;;6162385;27;19996;-44
2022/04/13 07:21:52;;;;;;;;;;;22.40;42.80;;;;;;6159926;27;19927;-46
2022/04/13 07:25:01;;;;;;;;;;;22.50;42.70;;;;;;6146623;28;19927;-49
2022/04/13 07:28:04;;;;;;;;;;;22.40;42.60;;;;;;6134395;28;20507;-46
2022/04/13 07:31:05;;;;;;;;;;;22.50;42.60;;;;;;6164708;27;21878;-46
2022/04/13 07:34:07;;;;;;;;;;;22.40;42.50;;;;;;6169646;27;20062;-50
2022/04/13 07:37:08;;;;;;;;;;;22.60;42.50;;;;;;6157185;27;20175;-47
2022/04/13 07:40:11;;;;;;;;;;;22.70;42.60;;;;;;6156723;27;19967;-47
2022/04/13 07:43:14;;;;;;;;;;;22.60;43.10;;;;;;6166355;27;19936;-46
2022/04/13 07:46:16;;;;;;;;;;;22.50;42.50;;;;;;6137006;28;20058;-45
2022/04/13 07:49:17;;;;;;;;;;;22.80;42.50;;;;;;6129586;27;20878;-47
2022/04/13 07:52:18;;;;;;;;;;;22.70;42.40;;;;;;6168997;27;19928;-45
2022/04/13 07:55:20;;;;;;;;;;;22.80;42.50;;;;;;6163217;27;19988;-43
2022/04/13 07:58:22;;;;;;;;;;;22.80;42.40;;;;;;6141255;27;19928;-44
2022/04/13 08:01:23;;;;;;;;;;;22.80;42.40;;;;;;6145263;27;21366;-43
2022/04/13 08:04:25;;;;;;;;;;;22.80;42.40;;;;;;6119615;27;21481;-47
2022/04/13 08:07:29;;;;;;;;;;;22.80;42.30;;;;;;6109006;27;19935;-45
2022/04/13 08:10:30;;;;;;;;;;;22.90;42.40;;;;;;6140184;28;19927;-47
2022/04/13 08:13:37;;;;;;;;;;;23.00;42.40;;;;;;6156548;28;19985;-50
2022/04/13 08:16:54;;;;;;;;;;;22.90;42.30;;;;;;6157310;27;20038;-45
2022/04/13 08:19:56;;;;;;;;;;;22.90;42.90;;;;;;6145522;27;19986;-49
2022/04/13 08:22:58;;;;;;;;;;;23.00;42.30;;;;;;6163106;27;19927;-46
2022/04/13 08:25:59;;;;;;;;;;;23.00;42.30;;;;;;6149929;27;20073;-45
2022/04/13 08:29:02;;;;;;;;;;;23.00;42.30;;;;;;6110369;27;19927;-42
2022/04/13 08:32:04;;;;;;;;;;;23.00;42.30;;;;;;6138043;28;19935;-49
2022/04/13 08:35:05;;;;;;;;;;;23.10;42.30;;;;;;6119978;28;19928;-47
2022/04/13 08:38:07;;;;;;;;;;;23.00;42.20;;;;;;6106476;28;20679;-46
2022/04/13 08:41:11;;;;;;;;;;;23.10;42.30;;;;;;6126973;27;21495;-44
2022/04/13 08:44:16;;;;;;;;;;;23.10;42.20;;;;;;6150286;27;19971;-44
2022/04/13 08:47:18;;;;;;;;;;;23.20;42.90;;;;;;6153008;28;19928;-44
2022/04/13 08:50:20;;;;;;;;;;;22.60;42.00;;;;;;6126048;28;20057;-43
2022/04/13 08:53:24;;;;;;;;;;;23.20;42.20;;;;;;6151453;27;19928;-43
2022/04/13 08:56:26;;;;;;;;;;;22.90;42.10;;;;;;6144639;28;21241;-46
2022/04/13 08:59:31;;;;;;;;;;;23.20;42.20;;;;;;6131788;28;20076;-44
2022/04/13 09:02:39;;;;;;;;;;;23.20;42.20;;;;;;6114444;28;20046;-44
2022/04/13 09:05:42;;;;;;;;;;;23.20;42.20;;;;;;6141637;27;19928;-44
2022/04/13 09:08:48;;;;;;;;;;;23.30;42.30;;;;;;6153024;27;21603;-44
2022/04/13 09:11:50;;;;;;;;;;;23.30;42.20;;;;;;6115160;28;19935;-45
2022/04/13 09:14:52;;;;;;;;;;;23.10;42.10;;;;;;6116780;28;19934;-46
2022/04/13 09:17:54;;;;;;;;;;;23.30;42.20;;;;;;6134433;27;19928;-44
2022/04/13 09:20:55;;;;;;;;;;;23.30;42.20;;;;;;6118084;27;19928;-44
2022/04/13 09:23:57;;;;;;;;;;;23.30;42.20;;;;;;6144782;27;19928;-44
2022/04/13 09:26:59;;;;;;;;;;;23.30;42.20;;;;;;6130573;27;19935;-47
2022/04/13 09:30:01;;;;;;;;;;;23.30;42.20;;;;;;6147080;28;20040;-46
2022/04/13 09:33:03;;;;;;;;;;;23.60;43.00;;;;;;6154737;27;19931;-45
2022/04/13 09:36:05;;;;;;;;;;;23.40;42.30;;;;;;6110892;28;19928;-45
2022/04/13 09:39:07;;;;;;;;;;;23.40;42.20;;;;;;6124141;27;20008;-46
2022/04/13 09:42:12;;;;;;;;;;;23.40;42.30;;;;;;6104692;27;19928;-44
2022/04/13 09:45:14;;;;;;;;;;;23.40;42.20;;;;;;6125420;28;19934;-47
2022/04/13 09:48:16;;;;;;;;;;;23.40;42.30;;;;;;6101933;27;19928;-45
2022/04/13 09:51:18;;;;;;;;;;;23.50;42.30;;;;;;6138428;27;20000;-44
2022/04/13 09:54:23;;;;;;;;;;;23.40;42.20;;;;;;6154730;28;20062;-44
2022/04/13 09:57:25;;;;;;;;;;;23.50;42.20;;;;;;6121627;27;21730;-45
2022/04/13 10:00:27;;;;;;;;;;;23.50;42.20;;;;;;6153612;27;19935;-46
2022/04/13 10:03:29;;;;;;;;;;;23.50;42.20;;;;;;6146462;28;20005;-44
2022/04/13 10:06:30;;;;;;;;;;;23.50;42.30;;;;;;6134467;27;19989;-45
2022/04/13 10:09:32;;;;;;;;;;;23.60;42.20;;;;;;6135930;27;19928;-47
2022/04/13 10:12:46;;;;;;;;;;;23.60;42.20;;;;;;6170355;27;19928;-46
2022/04/13 10:15:56;;;;;;;;;;;23.60;42.20;;;;;;6186191;27;19927;-50
2022/04/13 10:18:58;;;;;;;;;;;23.60;42.20;;;;;;6188098;27;19927;-52
2022/04/13 10:21:59;;;;;;;;;;;23.60;42.20;;;;;;6211958;27;19928;-51
2022/04/13 10:25:15;;;;;;;;;;;23.70;42.30;;;;;;6175490;27;19936;-46
2022/04/13 10:28:21;;;;;;;;;;;23.70;42.20;;;;;;6161577;27;19928;-47
2022/04/13 10:31:23;;;;;;;;;;;23.70;42.20;;;;;;6201238;27;19928;-48
2022/04/13 10:34:28;;;;;;;;;;;23.70;42.20;;;;;;6164126;28;19929;-48
2022/04/13 10:37:29;;;;;;;;;;;23.70;42.30;;;;;;6141355;28;19928;-50
2022/04/13 10:40:32;;;;;;;;;;;23.70;42.30;;;;;;6204507;28;20881;-49
2022/04/13 10:43:34;;;;;;;;;;;23.70;42.20;;;;;;6174758;28;19928;-45
2022/04/13 10:46:36;;;;;;;;;;;23.70;42.20;;;;;;6206374;27;20942;-50
2022/04/13 10:49:44;;;;;;;;;;;23.70;42.20;;;;;;6191806;27;20955;-49
2022/04/13 10:52:50;;;;;;;;;;;23.70;42.20;;;;;;6200621;27;20985;-46
2022/04/13 10:55:52;;;;;;;;;;;23.80;42.20;;;;;;6216771;28;21460;-46
2022/04/13 10:58:58;;;;;;;;;;;23.70;42.20;;;;;;6202227;27;20893;-47
2022/04/13 11:02:06;;;;;;;;;;;23.80;42.20;;;;;;6199041;28;20043;-47
2022/04/13 11:05:08;;;;;;;;;;;23.80;42.30;;;;;;6173636;27;20606;-46
2022/04/13 11:08:16;;;;;;;;;;;23.80;42.20;;;;;;6194008;27;19927;-48
2022/04/13 11:11:19;;;;;;;;;;;23.80;42.20;;;;;;6184756;27;19927;-46
2022/04/13 11:14:21;;;;;;;;;;;23.90;42.30;;;;;;6223090;27;20913;-47
2022/04/13 11:17:23;;;;;;;;;;;23.70;42.10;;;;;;6199205;27;20983;-46
2022/04/13 11:20:26;;;;;;;;;;;23.90;42.20;;;;;;6238852;27;20049;-48
2022/04/13 11:23:42;;;;;;;;;;;23.90;42.20;;;;;;6231596;27;19928;-48
2022/04/13 11:26:53;;;;;;;;;;;23.90;42.30;;;;;;6150109;28;19928;-48
2022/04/13 11:29:59;;;;;;;;;;;23.80;42.20;;;;;;6198730;27;19935;-48
2022/04/13 11:33:01;;;;;;;;;;;23.90;42.20;;;;;;6206069;28;20337;-50
2022/04/13 11:36:08;;;;;;;;;;;23.80;42.10;;;;;;6138432;28;19935;-47
2022/04/13 11:39:45;;;;;;;;;;;23.90;42.10;;;;;;6136545;28;20053;-49
2022/04/13 11:42:49;;;;;;;;;;;23.90;42.20;;;;;;6140371;28;19928;-46
2022/04/13 11:45:52;;;;;;;;;;;24.00;42.20;;;;;;6175045;27;20038;-47
2022/04/13 11:48:54;;;;;;;;;;;23.80;42.20;;;;;;6141633;28;19981;-45
2022/04/13 11:51:56;;;;;;;;;;;23.90;42.20;;;;;;6160162;28;19927;-48
2022/04/13 11:54:58;;;;;;;;;;;24.00;42.30;;;;;;6177587;27;19960;-47
2022/04/13 11:58:19;;;;;;;;;;;23.90;42.10;;;;;;6158933;27;20548;-50
2022/04/13 12:01:22;;;;;;;;;;;24.00;42.10;;;;;;6144753;27;19939;-44
2022/04/13 12:04:24;;;;;;;;;;;24.00;42.10;;;;;;6140792;27;19928;-44
2022/04/13 12:07:28;;;;;;;;;;;24.00;42.10;;;;;;6136438;27;20063;-45
2022/04/13 12:10:35;;;;;;;;;;;24.00;42.10;;;;;;6144616;27;20075;-45
2022/04/13 12:13:45;;;;;;;;;;;24.00;42.00;;;;;;6103884;28;20024;-46
2022/04/13 12:16:47;;;;;;;;;;;24.10;42.10;;;;;;6131633;28;19928;-45
2022/04/13 12:19:52;;;;;;;;;;;24.10;42.10;;;;;;6124777;27;19935;-51
2022/04/13 12:22:53;;;;;;;;;;;24.10;42.00;;;;;;6130973;28;19997;-46
2022/04/13 12:25:55;;;;;;;;;;;24.20;42.00;;;;;;6146555;27;20075;-47
2022/04/13 12:28:57;;;;;;;;;;;24.20;42.00;;;;;;6138926;27;20065;-45
2022/04/13 12:31:58;;;;;;;;;;;24.20;42.60;;;;;;6155172;27;19927;-47
2022/04/13 12:35:00;;;;;;;;;;;24.20;41.90;;;;;;6141470;27;19931;-45
2022/04/13 12:38:02;;;;;;;;;;;24.20;41.90;;;;;;6141110;28;19942;-45
2022/04/13 12:41:05;;;;;;;;;;;24.20;42.00;;;;;;6185570;27;21065;-45
2022/04/13 12:44:07;;;;;;;;;;;24.10;41.90;;;;;;6180778;27;21219;-49
2022/04/13 12:47:09;;;;;;;;;;;24.60;42.20;;;;;;6123173;28;19934;-45
2022/04/13 12:50:11;;;;;;;;;;;24.10;42.00;;;;;;6126312;28;19932;-47
2022/04/13 12:53:12;;;;;;;;;;;24.10;42.00;;;;;;6162657;27;19936;-44
2022/04/13 12:56:15;;;;;;;;;;;24.20;42.10;;;;;;6157584;27;19934;-46
2022/04/13 12:59:18;;;;;;;;;;;24.20;42.00;;;;;;6131240;27;19934;-45
2022/04/13 13:02:20;;;;;;;;;;;24.20;42.00;;;;;;6128708;27;20011;-47
2022/04/13 13:05:24;;;;;;;;;;;24.20;42.00;;;;;;6164698;27;21063;-45
2022/04/13 13:08:25;;;;;;;;;;;24.20;42.00;;;;;;6055879;27;19994;-46
2022/04/13 13:11:28;;;;;;;;;;;24.20;42.00;;;;;;6141087;27;19928;-45
2022/04/13 13:14:33;;;;;;;;;;;24.10;42.00;;;;;;6170100;27;21671;-45
2022/04/13 13:17:42;;;;;;;;;;;24.10;41.90;;;;;;6139127;27;20036;-46
2022/04/13 13:20:56;;;;;;;;;;;24.10;42.00;;;;;;6163600;27;19959;-43
2022/04/13 13:23:58;;;;;;;;;;;24.10;42.00;;;;;;6146596;28;19981;-44
2022/04/13 13:27:01;;;;;;;;;;;24.30;42.10;;;;;;6118709;27;19986;-44
2022/04/13 13:30:05;;;;;;;;;;;24.20;42.10;;;;;;6137901;27;19927;-44
2022/04/13 13:33:09;;;;;;;;;;;24.20;42.00;;;;;;6108661;27;19936;-45
2022/04/13 13:36:14;;;;;;;;;;;24.10;42.00;;;;;;6115978;28;19928;-44
2022/04/13 13:39:22;;;;;;;;;;;24.20;42.10;;;;;;6120400;27;20165;-45
2022/04/13 13:42:23;;;;;;;;;;;24.00;41.90;;;;;;6132701;27;19966;-45
2022/04/13 13:45:26;;;;;;;;;;;24.10;42.00;;;;;;6141429;27;22185;-46
2022/04/13 13:48:28;;;;;;;;;;;24.20;42.00;;;;;;6155908;27;19928;-45
2022/04/13 13:51:29;;;;;;;;;;;24.10;42.00;;;;;;6158481;27;20070;-48
2022/04/13 13:54:33;;;;;;;;;;;24.20;42.00;;;;;;6122754;28;19927;-45
2022/04/13 13:57:34;;;;;;;;;;;24.20;42.00;;;;;;6149896;27;19967;-46
2022/04/13 14:00:36;;;;;;;;;;;24.20;42.00;;;;;;6127045;27;19978;-44
2022/04/13 14:03:37;;;;;;;;;;;24.20;42.20;;;;;;6155574;27;19935;-48
2022/04/13 14:06:39;;;;;;;;;;;24.20;42.00;;;;;;6141078;27;20062;-46
2022/04/13 14:09:41;;;;;;;;;;;24.10;42.00;;;;;;6153165;27;19927;-48
2022/04/13 14:12:42;;;;;;;;;;;24.10;42.00;;;;;;6167804;27;19934;-46
2022/04/13 14:15:44;;;;;;;;;;;24.00;41.90;;;;;;6162295;27;21018;-47
2022/04/13 14:18:45;;;;;;;;;;;24.10;42.00;;;;;;6179007;27;19931;-48
2022/04/13 14:21:47;;;;;;;;;;;24.10;42.00;;;;;;6169427;27;20193;-45
2022/04/13 14:24:49;;;;;;;;;;;24.10;42.00;;;;;;6161582;28;20232;-45
2022/04/13 14:27:52;;;;;;;;;;;24.20;42.00;;;;;;6163970;28;20195;-46
2022/04/13 14:30:54;;;;;;;;;;;23.90;42.00;;;;;;6149681;28;21821;-45
2022/04/13 14:33:55;;;;;;;;;;;24.20;42.10;;;;;;6142129;27;20236;-45
2022/04/13 14:36:56;;;;;;;;;;;24.00;42.10;;;;;;6128692;27;19935;-46
2022/04/13 14:39:58;;;;;;;;;;;24.10;42.10;;;;;;6164702;27;20046;-46
2022/04/13 14:43:00;;;;;;;;;;;24.00;42.00;;;;;;6184273;27;19934;-44
2022/04/13 14:46:01;;;;;;;;;;;24.00;42.00;;;;;;6180778;28;19928;-45
2022/04/13 14:49:03;;;;;;;;;;;24.10;42.00;;;;;;6160619;28;20035;-47
2022/04/13 14:52:05;;;;;;;;;;;23.90;41.90;;;;;;6193363;27;20046;-44
2022/04/13 14:55:07;;;;;;;;;;;24.20;42.00;;;;;;6198636;28;20040;-47
2022/04/13 14:58:09;;;;;;;;;;;24.10;41.90;;;;;;6196792;27;21282;-48
2022/04/13 15:01:10;;;;;;;;;;;24.10;41.90;;;;;;6177663;27;19932;-45
2022/04/13 15:04:11;;;;;;;;;;;24.10;42.20;;;;;;6177505;27;19927;-48
2022/04/13 15:07:13;;;;;;;;;;;24.10;42.00;;;;;;6167161;28;20045;-48
2022/04/13 15:10:15;;;;;;;;;;;24.20;41.90;;;;;;6170752;27;19931;-45
2022/04/13 15:13:17;;;;;;;;;;;24.10;41.90;;;;;;6185799;27;20054;-47
2022/04/13 15:16:24;;;;;;;;;;;24.10;41.80;;;;;;6187177;27;19928;-45
2022/04/13 15:19:26;;;;;;;;;;;24.20;41.90;;;;;;6184429;27;21040;-46
2022/04/13 15:22:29;;;;;;;;;;;24.10;41.80;;;;;;6164920;28;20830;-47
2022/04/13 15:25:31;;;;;;;;;;;24.20;41.80;;;;;;6170001;28;20576;-50
2022/04/13 15:28:32;;;;;;;;;;;24.30;41.80;;;;;;6173932;27;20268;-48
2022/04/13 15:31:35;;;;;;;;;;;24.30;41.80;;;;;;6175745;27;20053;-50
2022/04/13 15:34:37;;;;;;;;;;;24.10;41.70;;;;;;6221309;27;21430;-48
2022/04/13 15:37:38;;;;;;;;;;;24.10;41.60;;;;;;6221877;27;19938;-49
2022/04/13 15:40:40;;;;;;;;;;;24.20;41.70;;;;;;6190746;27;20387;-47
2022/04/13 15:43:44;;;;;;;;;;;24.20;41.60;;;;;;6178736;28;19928;-47
2022/04/13 15:46:45;;;;;;;;;;;24.30;41.60;;;;;;6188324;28;20030;-47
2022/04/13 15:49:47;;;;;;;;;;;24.30;41.60;;;;;;6207109;27;19946;-47
2022/04/13 15:52:50;;;;;;;;;;;24.30;41.70;;;;;;6211268;27;21182;-46
2022/04/13 15:55:52;;;;;;;;;;;24.30;41.60;;;;;;6195762;27;20053;-45
2022/04/13 15:58:53;;;;;;;;;;;24.30;41.70;;;;;;6191211;27;19927;-44
2022/04/13 16:01:54;;;;;;;;;;;24.30;41.60;;;;;;6203759;27;19928;-45
2022/04/13 16:04:56;;;;;;;;;;;24.20;41.60;;;;;;6210022;28;20069;-48
2022/04/13 16:07:57;;;;;;;;;;;24.30;41.70;;;;;;6218367;28;19924;-45
2022/04/13 16:11:00;;;;;;;;;;;24.30;41.80;;;;;;6233974;27;20792;-44
2022/04/13 16:14:01;;;;;;;;;;;24.20;41.80;;;;;;6232827;27;19963;-44
2022/04/13 16:17:03;;;;;;;;;;;24.20;41.80;;;;;;6232576;28;20783;-46
2022/04/13 16:20:05;;;;;;;;;;;24.20;41.90;;;;;;6229013;27;20446;-48
2022/04/13 16:23:09;;;;;;;;;;;24.00;41.80;;;;;;6218923;28;19936;-47
2022/04/13 16:26:11;;;;;;;;;;;24.10;42.00;;;;;;6241379;27;20327;-45
2022/04/13 16:29:13;;;;;;;;;;;24.00;41.80;;;;;;6250714;28;19927;-46
2022/04/13 16:32:14;;;;;;;;;;;24.30;42.00;;;;;;6260968;27;20335;-46
2022/04/13 16:35:16;;;;;;;;;;;24.10;41.90;;;;;;6255860;27;19931;-46
2022/04/13 16:38:20;;;;;;;;;;;24.10;41.90;;;;;;6246123;27;21372;-45
2022/04/13 16:41:35;;;;;;;;;;;24.00;41.80;;;;;;6257813;27;19928;-49
2022/04/13 16:44:44;;;;;;;;;;;24.10;41.90;;;;;;6256760;27;20031;-46
2022/04/13 16:47:51;;;;;;;;;;;24.10;41.90;;;;;;6248641;28;19927;-54
2022/04/13 16:50:53;;;;;;;;;;;24.10;41.90;;;;;;6259096;27;19935;-47
2022/04/13 16:53:59;;;;;;;;;;;24.10;41.90;;;;;;6249192;27;19943;-48
2022/04/13 16:57:01;;;;;;;;;;;24.10;42.00;;;;;;6263501;28;19928;-47
2022/04/13 17:00:03;;;;;;;;;;;24.10;41.90;;;;;;6225125;28;21675;-48
2022/04/13 17:03:05;;;;;;;;;;;24.10;41.80;;;;;;6250771;28;19928;-47
2022/04/13 17:06:07;;;;;;;;;;;24.00;41.80;;;;;;6248286;28;19931;-45
2022/04/13 17:09:08;;;;;;;;;;;24.10;41.80;;;;;;6259632;27;21802;-47
2022/04/13 17:12:11;;;;;;;;;;;24.10;41.80;;;;;;6250967;28;22171;-46
2022/04/13 17:15:13;;;;;;;;;;;24.10;41.80;;;;;;6252264;28;20056;-47
2022/04/13 17:18:15;;;;;;;;;;;24.10;41.90;;;;;;6270127;27;19927;-50
2022/04/13 17:21:16;;;;;;;;;;;24.10;41.90;;;;;;6252250;28;19928;-46
2022/04/13 17:24:18;;;;;;;;;;;24.00;41.90;;;;;;6253090;27;19934;-47
2022/04/13 17:27:20;;;;;;;;;;;24.00;41.90;;;;;;6257625;28;20047;-46
2022/04/13 17:30:24;;;;;;;;;;;24.00;42.00;;;;;;6271181;27;20004;-48
2022/04/13 17:33:25;;;;;;;;;;;24.00;41.90;;;;;;6263935;27;20790;-49
2022/04/13 17:36:27;;;;;;;;;;;24.00;41.80;;;;;;6275806;27;19928;-47
2022/04/13 17:39:28;;;;;;;;;;;24.00;41.80;;;;;;6250498;28;20344;-45
2022/04/13 17:42:30;;;;;;;;;;;24.10;41.90;;;;;;6246969;28;19989;-47